KMRN/MRN METAR and TAF weather

Enter ICAO airport designator
Station Type Date Time Source
KMRN METAR 2019/06/26 20:00 UTC NOAA

KMRN 262000Z AUTO 13003KT 10SM CLR 30/14 A3020 RMK AO2 T03010137


Station Type Date Time Source
KMRN Decoded METAR 2019/06/26 20:00 UTC NOAA

Morganton, Morganton-Lenoir Airport, NC, United States (KMRN) 35-49-17N 081-36-39W
Jun 26, 2019 - 04:00 PM EDT / 2019.06.26 2000 UTC
Wind: from the SE (130 degrees) at 3 MPH (3 KT):0
Visibility: 10 mile(s):0
Sky conditions: clear
Temperature: 86.2 F (30.1 C)
Dew Point: 56.7 F (13.7 C)
Relative Humidity: 36%
Pressure (altimeter): 30.2 in. Hg (1022 hPa)
ob: KMRN 262000Z AUTO 13003KT 10SM CLR 30/14 A3020 RMK AO2 T03010137
cycle: 20

Station Type Date Time Source
KMRN TAF UTC NOAA

Error!

Example: see airport list